createdAt,value
2019-05-01T00:00:24.748Z,98362.31
2019-05-01T00:03:49.121Z,98368.09
2019-05-01T00:07:00.993Z,98360.81
2019-05-01T00:10:07.238Z,98358.41
2019-05-01T00:13:12.070Z,98362.33
2019-05-01T00:16:16.910Z,98357.38
2019-05-01T00:19:21.737Z,98350.09
2019-05-01T00:22:26.186Z,98343.21
2019-05-01T00:25:30.624Z,98337.75
2019-05-01T00:28:35.317Z,98334.35
2019-05-01T00:31:39.749Z,98340.20
2019-05-01T00:34:44.194Z,98337.27
2019-05-01T00:37:48.889Z,98331.94
2019-05-01T00:40:53.624Z,98331.55
2019-05-01T00:43:58.067Z,98333.66
2019-05-01T00:47:02.778Z,98331.81
2019-05-01T00:50:09.087Z,98341.48
2019-05-01T00:53:13.880Z,98340.24
2019-05-01T00:56:25.707Z,98331.64
2019-05-01T00:59:32.674Z,98330.05
2019-05-01T01:02:41.760Z,98333.16
2019-05-01T01:05:46.197Z,98337.70
2019-05-01T01:08:50.654Z,98327.34
2019-05-01T01:11:55.085Z,98331.94
2019-05-01T01:14:59.535Z,98329.70
2019-05-01T01:18:04.264Z,98325.96
2019-05-01T01:21:08.947Z,98319.19
2019-05-01T01:24:13.780Z,98318.13
2019-05-01T01:27:18.359Z,98321.98
2019-05-01T01:30:22.871Z,98317.00
2019-05-01T01:33:27.318Z,98315.16
2019-05-01T01:36:31.758Z,98308.81
2019-05-01T01:39:36.196Z,98309.23
2019-05-01T01:42:41.770Z,98309.23
2019-05-01T01:45:47.859Z,98306.92
2019-05-01T01:48:52.475Z,98303.28
2019-05-01T01:51:57.041Z,98300.53
2019-05-01T01:55:01.805Z,98301.55
2019-05-01T01:58:07.259Z,98302.27
2019-05-01T02:01:19.114Z,98300.00
2019-05-01T02:04:41.624Z,98301.08
2019-05-01T02:07:46.437Z,98300.81
2019-05-01T02:10:50.944Z,98303.04
2019-05-01T02:13:56.917Z,98298.58
2019-05-01T02:17:01.358Z,98299.39
2019-05-01T02:20:08.646Z,98301.65
2019-05-01T02:23:13.082Z,98302.94
2019-05-01T02:26:20.107Z,98300.09
2019-05-01T02:29:27.368Z,98298.36
2019-05-01T02:32:32.536Z,98294.31
2019-05-01T02:35:37.060Z,98293.13
2019-05-01T02:38:43.874Z,98283.95
2019-05-01T02:41:51.886Z,98285.13
2019-05-01T02:44:59.791Z,98288.72
2019-05-01T02:48:05.367Z,98286.05
2019-05-01T02:51:11.294Z,98284.95
2019-05-01T02:54:17.163Z,98276.69
2019-05-01T02:57:23.977Z,98280.36
2019-05-01T03:00:29.171Z,98278.10
2019-05-01T03:03:34.012Z,98286.66
2019-05-01T03:06:39.463Z,98283.67
2019-05-01T03:09:44.601Z,98284.76
2019-05-01T03:12:51.284Z,98284.89
2019-05-01T03:15:56.171Z,98286.34
2019-05-01T03:19:08.445Z,98284.08
2019-05-01T03:22:29.467Z,98292.67
2019-05-01T03:25:34.192Z,98283.31
2019-05-01T03:28:39.507Z,98286.22
2019-05-01T03:31:43.957Z,98284.23
2019-05-01T03:34:52.653Z,98283.94
2019-05-01T03:37:54.926Z,98282.85
2019-05-01T03:40:59.971Z,98284.02
2019-05-01T03:44:05.242Z,98286.44
2019-05-01T03:47:10.050Z,98284.57
2019-05-01T03:50:14.873Z,98281.70
2019-05-01T03:53:19.310Z,98282.48
2019-05-01T03:56:24.639Z,98272.09
2019-05-01T03:59:29.209Z,98270.72
2019-05-01T04:02:47.281Z,98271.13
2019-05-01T04:05:52.149Z,98272.19
2019-05-01T04:08:56.743Z,98276.00
2019-05-01T04:12:02.210Z,98270.81
2019-05-01T04:15:07.923Z,98266.31
2019-05-01T04:18:12.546Z,98266.58
2019-05-01T04:21:18.519Z,98266.12
2019-05-01T04:24:23.709Z,98268.65
2019-05-01T04:27:29.935Z,98272.19
2019-05-01T04:30:39.023Z,98271.81
2019-05-01T04:33:45.173Z,98273.91
2019-05-01T04:36:49.930Z,98280.18
2019-05-01T04:39:54.435Z,98281.15
2019-05-01T04:42:59.322Z,98283.54
2019-05-01T04:46:03.829Z,98285.38
2019-05-01T04:49:08.623Z,98289.13
2019-05-01T04:52:13.130Z,98290.70
2019-05-01T04:55:17.971Z,98289.91
2019-05-01T04:58:22.426Z,98288.42
2019-05-01T05:01:30.637Z,98291.24
2019-05-01T05:04:35.436Z,98295.48
2019-05-01T05:07:39.875Z,98295.41
2019-05-01T05:10:45.389Z,98295.14
2019-05-01T05:14:08.171Z,98293.33
2019-05-01T05:17:20.783Z,98293.86
2019-05-01T05:20:25.960Z,98296.16
2019-05-01T05:23:31.049Z,98295.75
2019-05-01T05:26:36.013Z,98298.16
2019-05-01T05:29:41.145Z,98294.37
2019-05-01T05:32:47.719Z,98292.72
2019-05-01T05:35:54.876Z,98291.41
2019-05-01T05:39:02.302Z,98294.22
2019-05-01T05:42:07.640Z,98296.19
2019-05-01T05:45:12.093Z,98300.63
2019-05-01T05:48:17.111Z,98305.94
2019-05-01T05:51:40.302Z,98303.97
2019-05-01T05:55:00.783Z,98301.50
2019-05-01T05:58:08.537Z,98303.81
2019-05-01T06:01:33.681Z,98301.89
2019-05-01T06:04:42.702Z,98299.63
2019-05-01T06:07:52.871Z,98294.39
2019-05-01T06:11:00.492Z,98296.92
2019-05-01T06:14:11.134Z,98294.31
2019-05-01T06:17:15.346Z,98292.77
2019-05-01T06:20:26.011Z,98288.03
2019-05-01T06:23:34.465Z,98285.98
2019-05-01T06:26:39.694Z,98289.78
2019-05-01T06:29:45.249Z,98290.45
2019-05-01T06:32:49.761Z,98290.47
2019-05-01T06:35:54.596Z,98283.95
2019-05-01T06:38:59.782Z,98283.80
2019-05-01T06:42:09.918Z,98279.21
2019-05-01T06:45:16.788Z,98280.22
2019-05-01T06:48:28.981Z,98273.73
2019-05-01T06:51:33.459Z,98281.67
2019-05-01T06:54:38.047Z,98274.81
2019-05-01T06:57:44.013Z,98277.48
2019-05-01T07:00:51.536Z,98275.60
2019-05-01T07:04:03.637Z,98279.02
2019-05-01T07:07:06.836Z,98278.95
2019-05-01T07:10:10.662Z,98279.44
2019-05-01T07:13:15.196Z,98283.91
2019-05-01T07:16:22.805Z,98278.69
2019-05-01T07:19:45.349Z,98285.34
2019-05-01T07:22:50.207Z,98282.88
2019-05-01T07:25:54.941Z,98282.06
2019-05-01T07:29:01.025Z,98281.88
2019-05-01T07:32:06.427Z,98279.63
2019-05-01T07:35:11.353Z,98282.93
2019-05-01T07:38:16.417Z,98284.96
2019-05-01T07:41:20.868Z,98280.62
2019-05-01T07:44:30.086Z,98273.86
2019-05-01T07:47:41.277Z,98285.45
2019-05-01T07:50:46.237Z,98278.72
2019-05-01T07:53:51.316Z,98276.74
2019-05-01T07:56:58.719Z,98275.37
2019-05-01T08:00:08.149Z,98276.30
2019-05-01T08:03:10.621Z,98283.77
2019-05-01T08:06:16.092Z,98277.98
2019-05-01T08:09:21.305Z,98281.02
2019-05-01T08:12:25.988Z,98277.80
2019-05-01T08:15:32.675Z,98283.73
2019-05-01T08:18:58.872Z,98281.13
2019-05-01T08:22:05.270Z,98277.77
2019-05-01T08:25:09.854Z,98270.44
2019-05-01T08:28:33.301Z,98271.97
2019-05-01T08:31:58.731Z,98268.06
2019-05-01T08:35:03.907Z,98265.16
2019-05-01T08:38:08.363Z,98263.84
2019-05-01T08:41:13.058Z,98265.60
2019-05-01T08:44:19.149Z,98259.05
2019-05-01T08:47:27.565Z,98260.06
2019-05-01T08:50:31.759Z,98261.36
2019-05-01T08:53:36.486Z,98259.38
2019-05-01T08:56:43.634Z,98263.20
2019-05-01T08:59:47.383Z,98258.94
2019-05-01T09:02:51.840Z,98259.74
2019-05-01T09:05:57.386Z,98262.09
2019-05-01T09:09:02.917Z,98258.23
2019-05-01T09:12:11.927Z,98262.13
2019-05-01T09:15:14.833Z,98256.63
2019-05-01T09:18:19.283Z,98257.06
2019-05-01T09:21:23.735Z,98258.33
2019-05-01T09:24:29.432Z,98252.36
2019-05-01T09:27:35.901Z,98250.50
2019-05-01T09:30:44.559Z,98243.77
2019-05-01T09:33:49.011Z,98245.80
2019-05-01T09:36:53.775Z,98240.73
2019-05-01T09:39:58.633Z,98236.25
2019-05-01T09:43:03.338Z,98240.65
2019-05-01T09:46:07.846Z,98239.48
2019-05-01T09:49:14.354Z,98237.98
2019-05-01T09:52:24.817Z,98241.08
2019-05-01T09:55:30.146Z,98234.95
2019-05-01T09:58:34.599Z,98237.81
2019-05-01T10:01:39.116Z,98229.58
2019-05-01T10:04:43.823Z,98230.58
2019-05-01T10:07:48.267Z,98226.61
2019-05-01T10:10:52.801Z,98221.16
2019-05-01T10:13:58.425Z,98221.38
2019-05-01T10:17:03.420Z,98215.28
2019-05-01T10:20:08.781Z,98220.34
2019-05-01T10:23:14.978Z,98212.00
2019-05-01T10:26:23.917Z,98211.58
2019-05-01T10:29:31.767Z,98204.59
2019-05-01T10:32:38.179Z,98205.61
2019-05-01T10:35:44.552Z,98200.03
2019-05-01T10:38:49.283Z,98192.94
2019-05-01T10:41:53.727Z,98183.51
2019-05-01T10:44:58.249Z,98187.19
2019-05-01T10:48:02.849Z,98182.44
2019-05-01T10:51:07.591Z,98177.13
2019-05-01T10:54:12.046Z,98171.33
2019-05-01T10:57:16.559Z,98167.39
2019-05-01T11:00:21.676Z,98169.08
2019-05-01T11:03:26.128Z,98167.50
2019-05-01T11:06:30.831Z,98163.33
2019-05-01T11:09:35.273Z,98160.09
2019-05-01T11:12:39.989Z,98163.27
2019-05-01T11:15:44.435Z,98155.77
2019-05-01T11:18:48.876Z,98158.09
2019-05-01T11:21:53.330Z,98154.94
2019-05-01T11:24:57.776Z,98139.65
2019-05-01T11:28:02.216Z,98140.91
2019-05-01T11:31:08.315Z,98137.96
2019-05-01T11:34:17.101Z,98142.35
2019-05-01T11:37:27.248Z,98130.95
2019-05-01T11:40:36.079Z,98134.89
2019-05-01T11:43:40.810Z,98132.41
2019-05-01T11:46:45.334Z,98136.60
2019-05-01T11:49:49.764Z,98128.98
2019-05-01T11:52:54.208Z,98124.05
2019-05-01T11:55:58.918Z,98116.91
2019-05-01T11:59:03.367Z,98110.35
2019-05-01T12:02:07.881Z,98112.81
2019-05-01T12:05:12.698Z,98109.96
2019-05-01T12:08:17.154Z,98107.56
2019-05-01T12:11:23.605Z,98112.34
2019-05-01T12:14:28.035Z,98103.45
2019-05-01T12:17:34.381Z,98104.64
2019-05-01T12:20:38.825Z,98102.89
2019-05-01T12:23:43.274Z,98105.61
2019-05-01T12:26:47.726Z,98100.53
2019-05-01T12:29:52.493Z,98100.94
2019-05-01T12:32:56.938Z,98099.66
2019-05-01T12:36:03.017Z,98099.27
2019-05-01T12:39:16.995Z,98088.98
2019-05-01T12:42:28.783Z,98090.49
2019-05-01T12:45:33.655Z,98088.96
2019-05-01T12:48:38.388Z,98088.69
2019-05-01T12:51:44.471Z,98083.66
2019-05-01T12:54:52.094Z,98077.55
2019-05-01T12:57:57.077Z,98076.52
2019-05-01T13:01:01.517Z,98070.27
2019-05-01T13:04:05.974Z,98064.45
2019-05-01T13:07:10.961Z,98058.83
2019-05-01T13:10:15.674Z,98057.42
2019-05-01T13:13:20.125Z,98060.47
2019-05-01T13:16:24.569Z,98049.22
2019-05-01T13:19:29.021Z,98045.20
2019-05-01T13:22:33.801Z,98039.02
2019-05-01T13:25:38.305Z,98040.37
2019-05-01T13:29:02.195Z,98036.69
2019-05-01T13:32:14.411Z,98031.16
2019-05-01T13:35:18.933Z,98025.82
2019-05-01T13:38:23.664Z,98020.67
2019-05-01T13:41:28.103Z,98018.64
2019-05-01T13:44:32.552Z,98016.02
2019-05-01T13:47:37.343Z,98008.88
2019-05-01T13:50:42.222Z,98003.06
2019-05-01T13:53:46.673Z,97998.31
2019-05-01T13:56:51.119Z,97998.87
2019-05-01T13:59:55.858Z,97995.20
2019-05-01T14:03:00.305Z,97985.18
2019-05-01T14:06:05.011Z,97980.54
2019-05-01T14:09:11.362Z,97978.05
2019-05-01T14:12:15.806Z,97972.91
2019-05-01T14:15:20.249Z,97978.97
2019-05-01T14:18:24.958Z,97968.70
2019-05-01T14:21:31.332Z,97966.00
2019-05-01T14:24:37.705Z,97955.63
2019-05-01T14:27:42.142Z,97953.41
2019-05-01T14:30:46.591Z,97955.28
2019-05-01T14:33:51.034Z,97953.17
2019-05-01T14:36:55.504Z,97952.02
2019-05-01T14:40:00.225Z,97948.73
2019-05-01T14:43:04.666Z,97943.98
2019-05-01T14:46:09.234Z,97941.22
2019-05-01T14:49:13.630Z,97941.02
2019-05-01T14:52:18.155Z,97947.22
2019-05-01T14:55:22.862Z,97944.55
2019-05-01T14:58:27.588Z,97936.19
2019-05-01T15:01:32.027Z,97935.89
2019-05-01T15:04:36.474Z,97930.41
2019-05-01T15:07:43.869Z,97931.53
2019-05-01T15:10:47.340Z,97926.65
2019-05-01T15:13:59.744Z,97922.21
2019-05-01T15:17:21.646Z,97919.19
2019-05-01T15:20:26.089Z,97916.73
2019-05-01T15:23:30.528Z,97918.70
2019-05-01T15:26:35.261Z,97912.29
2019-05-01T15:29:39.986Z,97913.52
2019-05-01T15:32:44.424Z,97908.77
2019-05-01T15:35:48.871Z,97912.58
2019-05-01T15:38:53.313Z,97905.90
2019-05-01T15:42:05.063Z,97908.63
2019-05-01T15:45:09.952Z,97903.03
2019-05-01T15:48:14.923Z,97897.26
2019-05-01T15:51:19.648Z,97896.53
2019-05-01T15:54:24.084Z,97899.42
2019-05-01T15:57:28.805Z,97891.05
2019-05-01T16:00:33.255Z,97885.86
2019-05-01T16:03:37.962Z,97884.98
2019-05-01T16:06:42.411Z,97888.22
2019-05-01T16:09:46.862Z,97887.60
2019-05-01T16:12:52.937Z,97888.84
2019-05-01T16:15:57.706Z,97882.77
2019-05-01T16:19:02.435Z,97886.75
2019-05-01T16:22:07.166Z,97887.19
2019-05-01T16:25:12.307Z,97883.75
2019-05-01T16:28:16.747Z,97881.66
2019-05-01T16:31:21.193Z,97878.11
2019-05-01T16:34:25.628Z,97873.33
2019-05-01T16:37:30.067Z,97873.92
2019-05-01T16:40:38.846Z,97882.19
2019-05-01T16:43:43.562Z,97872.66
2019-05-01T16:46:48.010Z,97877.73
2019-05-01T16:49:52.451Z,97868.92
2019-05-01T16:52:57.239Z,97868.22
2019-05-01T16:56:01.965Z,97865.18
2019-05-01T16:59:06.697Z,97868.39
2019-05-01T17:02:24.536Z,97862.77
2019-05-01T17:05:30.685Z,97862.34
2019-05-01T17:08:37.143Z,97857.14
2019-05-01T17:11:42.111Z,97855.77
2019-05-01T17:14:46.837Z,97859.95
2019-05-01T17:17:51.286Z,97854.05
2019-05-01T17:20:55.872Z,97858.29
2019-05-01T17:24:00.308Z,97856.37
2019-05-01T17:27:04.751Z,97853.77
2019-05-01T17:30:11.731Z,97861.40
2019-05-01T17:33:20.608Z,97866.08
2019-05-01T17:36:22.625Z,97864.21
2019-05-01T17:39:27.060Z,97856.78
2019-05-01T17:42:32.940Z,97861.06
2019-05-01T17:45:37.670Z,97860.95
2019-05-01T17:48:42.117Z,97857.12
2019-05-01T17:51:47.526Z,97861.09
2019-05-01T17:54:52.077Z,97866.31
2019-05-01T17:57:56.520Z,97859.63
2019-05-01T18:01:06.512Z,97862.72
2019-05-01T18:04:18.023Z,97861.75
2019-05-01T18:07:23.136Z,97860.66
2019-05-01T18:10:27.865Z,97857.73
2019-05-01T18:13:32.378Z,97858.38
2019-05-01T18:16:37.128Z,97856.86
2019-05-01T18:19:41.850Z,97858.77
2019-05-01T18:22:46.063Z,97854.69
2019-05-01T18:26:04.758Z,97856.44
2019-05-01T18:29:18.799Z,97861.09
2019-05-01T18:32:28.222Z,97858.25
2019-05-01T18:35:32.736Z,97859.22
2019-05-01T18:38:42.889Z,97866.15
2019-05-01T18:41:55.165Z,97868.26
2019-05-01T18:44:59.596Z,97867.44
2019-05-01T18:48:04.422Z,97873.83
2019-05-01T18:51:08.886Z,97867.36
2019-05-01T18:54:13.336Z,97871.03
2019-05-01T18:57:18.152Z,97871.25
2019-05-01T19:00:22.595Z,97867.88
2019-05-01T19:03:29.707Z,97872.89
2019-05-01T19:06:41.102Z,97875.96
2019-05-01T19:09:39.543Z,97884.86
2019-05-01T19:12:43.998Z,97876.73
2019-05-01T19:15:50.724Z,97881.95
2019-05-01T19:18:55.467Z,97885.01
2019-05-01T19:21:59.895Z,97884.12
2019-05-01T19:25:05.025Z,97889.36
2019-05-01T19:28:09.863Z,97884.32
2019-05-01T19:31:14.723Z,97888.05
2019-05-01T19:34:19.162Z,97890.68
2019-05-01T19:37:24.947Z,97882.87
2019-05-01T19:40:32.539Z,97884.20
2019-05-01T19:43:40.469Z,97891.28
2019-05-01T19:46:42.547Z,97894.94
2019-05-01T19:49:47.000Z,97887.91
2019-05-01T19:52:51.442Z,97888.36
2019-05-01T19:55:56.235Z,97886.55
2019-05-01T19:59:00.688Z,97884.73
2019-05-01T20:02:07.463Z,97883.26
2019-05-01T20:05:12.273Z,97883.60
2019-05-01T20:08:17.308Z,97888.22
2019-05-01T20:11:22.026Z,97889.10
2019-05-01T20:14:26.494Z,97887.11
2019-05-01T20:17:31.493Z,97887.11
2019-05-01T20:20:35.938Z,97877.49
2019-05-01T20:23:40.412Z,97881.30
2019-05-01T20:26:44.825Z,97876.28
2019-05-01T20:29:49.595Z,97878.62
2019-05-01T20:32:58.273Z,97882.06
2019-05-01T20:36:04.654Z,97880.69
2019-05-01T20:39:08.940Z,97878.69
2019-05-01T20:42:13.737Z,97878.95
2019-05-01T20:45:19.650Z,97879.91
2019-05-01T20:48:25.171Z,97877.11
2019-05-01T20:51:29.865Z,97877.04
2019-05-01T20:54:34.314Z,97873.13
2019-05-01T20:57:49.577Z,97874.47
2019-05-01T21:00:55.669Z,97872.53
2019-05-01T21:04:09.180Z,97873.05
2019-05-01T21:07:19.865Z,97876.05
2019-05-01T21:10:29.814Z,97874.71
2019-05-01T21:13:34.816Z,97882.87
2019-05-01T21:16:39.633Z,97875.51
2019-05-01T21:19:44.215Z,97872.60
2019-05-01T21:22:48.873Z,97865.64
2019-05-01T21:25:53.868Z,97869.70
2019-05-01T21:28:58.583Z,97870.29
2019-05-01T21:32:03.571Z,97864.96
2019-05-01T21:35:08.226Z,97864.05
2019-05-01T21:38:13.097Z,97865.03
2019-05-01T21:41:18.420Z,97859.53
2019-05-01T21:44:23.438Z,97865.44
2019-05-01T21:47:27.882Z,97860.36
2019-05-01T21:50:33.560Z,97858.80
2019-05-01T21:53:42.684Z,97862.39
2019-05-01T21:56:44.508Z,97859.71
2019-05-01T21:59:51.281Z,97859.37
2019-05-01T22:02:55.677Z,97852.39
2019-05-01T22:06:00.122Z,97845.50
2019-05-01T22:09:10.497Z,97851.80
2019-05-01T22:12:14.430Z,97847.19
2019-05-01T22:15:36.593Z,97844.00
2019-05-01T22:18:57.633Z,97850.11
2019-05-01T22:22:03.720Z,97844.70
2019-05-01T22:25:19.234Z,97844.14
2019-05-01T22:28:25.319Z,97844.89
2019-05-01T22:31:52.901Z,97838.27
2019-05-01T22:35:06.626Z,97846.92
2019-05-01T22:38:11.072Z,97837.27
2019-05-01T22:41:15.526Z,97838.33
2019-05-01T22:44:20.315Z,97835.34
2019-05-01T22:47:24.823Z,97837.21
2019-05-01T22:50:29.266Z,97832.07
2019-05-01T22:53:33.976Z,97833.39
2019-05-01T22:56:38.714Z,97826.36
2019-05-01T22:59:43.445Z,97830.07
2019-05-01T23:02:47.879Z,97832.50
2019-05-01T23:05:52.596Z,97826.89
2019-05-01T23:08:57.324Z,97826.92
2019-05-01T23:12:02.212Z,97818.92
2019-05-01T23:15:10.402Z,97820.91
2019-05-01T23:18:15.576Z,97819.13
2019-05-01T23:21:21.012Z,97813.00
2019-05-01T23:24:25.795Z,97817.66
2019-05-01T23:27:30.788Z,97806.70
2019-05-01T23:30:35.259Z,97813.57
2019-05-01T23:33:39.699Z,97810.20
2019-05-01T23:36:44.173Z,97807.75
2019-05-01T23:39:48.933Z,97804.23
2019-05-01T23:42:53.949Z,97803.14
2019-05-01T23:45:58.512Z,97800.21
2019-05-01T23:49:03.231Z,97795.63
2019-05-01T23:52:07.964Z,97786.36
2019-05-01T23:55:12.752Z,97790.48
2019-05-01T23:58:17.519Z,97794.05
